Time;durP1;ratioP1;P1;durP2;ratioP2;P2;SDS_P1;SDS_P2;PMS_P1;PMS_P2;Temp;Humidity;BMP_temperature;BMP_pressure;BME280_temperature;BME280_humidity;BME280_pressure;Samples;Min_cycle;Max_cycle;Signal;HPM_P1;HPM_P2
2020/12/04 00:01:04;;;;;;;20.05;9.90;;;3.10;99.90;;;;;;10330988;28;20049;-66
2020/12/04 00:06:05;;;;;;;18.23;9.90;;;3.10;99.90;;;;;;10329573;28;20397;-66
2020/12/04 00:11:07;;;;;;;16.23;9.05;;;3.10;99.90;;;;;;10326442;28;20057;-66
2020/12/04 00:16:08;;;;;;;18.13;10.18;;;3.10;99.90;;;;;;10312998;28;20064;-66
2020/12/04 00:21:11;;;;;;;17.95;9.88;;;3.10;99.90;;;;;;10333281;28;20053;-66
2020/12/04 00:26:12;;;;;;;17.63;9.98;;;3.10;99.90;;;;;;10327300;28;20949;-66
2020/12/04 00:31:13;;;;;;;17.95;10.13;;;3.10;99.90;;;;;;10323493;28;20046;-66
2020/12/04 00:36:15;;;;;;;18.60;10.07;;;3.00;99.90;;;;;;10327671;28;20052;-66
2020/12/04 00:41:16;;;;;;;16.58;10.07;;;3.00;99.90;;;;;;10322239;28;20054;-65
2020/12/04 00:46:17;;;;;;;16.92;10.77;;;2.90;99.90;;;;;;10329670;28;20066;-65
2020/12/04 00:51:18;;;;;;;17.63;10.05;;;2.60;99.90;;;;;;10326630;28;20060;-65
2020/12/04 00:56:21;;;;;;;21.42;11.45;;;2.60;99.90;;;;;;10326079;28;20116;-64
2020/12/04 01:01:22;;;;;;;25.27;11.55;;;2.50;99.90;;;;;;10329145;28;20512;-65
2020/12/04 01:06:24;;;;;;;24.60;12.40;;;2.50;99.90;;;;;;10329060;28;20054;-64
2020/12/04 01:11:26;;;;;;;24.13;12.02;;;2.40;99.90;;;;;;10321384;28;20381;-63
2020/12/04 01:16:28;;;;;;;22.70;12.55;;;2.40;99.90;;;;;;10327075;28;20499;-63
2020/12/04 01:21:29;;;;;;;29.10;13.32;;;2.30;99.90;;;;;;10327241;28;20050;-63
2020/12/04 01:26:30;;;;;;;22.77;12.02;;;2.20;99.90;;;;;;10310063;28;20664;-63
2020/12/04 01:31:31;;;;;;;21.13;10.82;;;2.20;99.90;;;;;;10324566;28;20053;-63
2020/12/04 01:36:32;;;;;;;24.13;12.27;;;2.20;99.90;;;;;;10327364;28;20061;-63
2020/12/04 01:41:37;;;;;;;25.42;12.02;;;2.20;99.90;;;;;;10321517;28;20112;-64
2020/12/04 01:46:38;;;;;;;21.55;11.25;;;2.20;99.90;;;;;;10334697;28;20050;-63
2020/12/04 01:51:40;;;;;;;20.45;11.55;;;2.20;99.90;;;;;;10333701;28;20146;-63
2020/12/04 01:56:42;;;;;;;22.25;11.75;;;2.20;99.90;;;;;;10331972;28;20493;-63
2020/12/04 02:01:44;;;;;;;22.38;11.73;;;2.20;99.90;;;;;;10334135;28;20048;-63
2020/12/04 02:07:07;;;;;;;24.05;11.38;;;2.30;99.90;;;;;;10335900;28;20104;-63
2020/12/04 02:12:15;;;;;;;22.00;11.43;;;2.30;99.90;;;;;;10331659;28;20050;-63
2020/12/04 02:17:27;;;;;;;24.33;12.10;;;2.20;99.90;;;;;;10332359;28;20046;-63
2020/12/04 02:22:35;;;;;;;21.80;11.07;;;2.30;99.90;;;;;;10333242;28;20157;-63
2020/12/04 02:27:50;;;;;;;23.85;12.38;;;2.40;99.90;;;;;;10339782;28;20601;-63
2020/12/04 02:32:51;;;;;;;24.20;11.73;;;2.30;99.90;;;;;;10282681;28;20053;-64
2020/12/04 02:37:52;;;;;;;25.70;13.18;;;2.40;99.90;;;;;;10335224;28;20719;-63
2020/12/04 02:42:54;;;;;;;24.27;13.10;;;2.40;99.90;;;;;;10328988;28;20061;-63
2020/12/04 02:47:55;;;;;;;29.83;16.13;;;2.40;99.90;;;;;;10327058;28;20042;-63
2020/12/04 02:52:56;;;;;;;25.55;12.43;;;2.40;99.90;;;;;;10329638;28;20053;-63
2020/12/04 02:57:58;;;;;;;22.08;12.68;;;2.50;99.90;;;;;;10330556;28;20049;-63
2020/12/04 03:02:59;;;;;;;23.92;11.15;;;2.50;99.90;;;;;;10322935;28;20050;-63
2020/12/04 03:08:01;;;;;;;21.92;10.80;;;2.50;99.90;;;;;;10327931;28;20050;-64
2020/12/04 03:13:03;;;;;;;25.75;13.20;;;2.50;99.90;;;;;;10327776;28;20104;-63
2020/12/04 03:18:14;;;;;;;26.42;12.40;;;2.50;99.90;;;;;;10327796;28;20512;-63
2020/12/04 03:23:15;;;;;;;30.58;14.80;;;2.50;99.90;;;;;;10328972;28;20512;-64
2020/12/04 03:28:16;;;;;;;24.92;12.43;;;2.50;99.90;;;;;;10330701;28;20053;-64
2020/12/04 03:33:18;;;;;;;28.30;13.18;;;2.50;99.90;;;;;;10329488;28;20046;-64
2020/12/04 03:38:19;;;;;;;28.98;14.10;;;2.50;99.90;;;;;;10330556;28;20077;-64
2020/12/04 03:43:20;;;;;;;31.42;15.00;;;2.50;99.90;;;;;;10331385;28;20128;-64
2020/12/04 03:48:21;;;;;;;29.45;13.00;;;2.50;99.90;;;;;;10328339;28;20065;-65
2020/12/04 03:53:22;;;;;;;27.95;12.70;;;2.50;99.90;;;;;;10327440;28;20081;-64
2020/12/04 03:58:24;;;;;;;27.65;12.95;;;2.40;99.90;;;;;;10324767;28;20038;-65
2020/12/04 04:03:25;;;;;;;28.17;13.48;;;2.40;99.90;;;;;;10327874;28;20053;-65
2020/12/04 04:08:26;;;;;;;33.15;15.75;;;2.40;99.90;;;;;;10329295;28;20050;-64
2020/12/04 04:13:27;;;;;;;42.30;21.88;;;2.40;99.90;;;;;;10324756;28;20073;-64
2020/12/04 04:18:28;;;;;;;47.35;20.08;;;2.40;99.90;;;;;;10328318;28;20529;-64
2020/12/04 04:23:30;;;;;;;36.70;16.15;;;2.40;99.90;;;;;;10322164;28;20050;-64
2020/12/04 04:28:31;;;;;;;33.95;14.73;;;2.40;99.90;;;;;;10322109;28;20543;-64
2020/12/04 04:33:32;;;;;;;36.95;15.02;;;2.40;99.90;;;;;;10328532;28;20058;-64
2020/12/04 04:38:33;;;;;;;37.55;14.38;;;2.40;99.90;;;;;;10320435;28;20131;-64
2020/12/04 04:43:34;;;;;;;42.53;15.40;;;2.40;99.90;;;;;;10324987;28;20804;-64
2020/12/04 04:48:36;;;;;;;37.75;15.20;;;2.40;99.90;;;;;;10328381;28;20042;-64
2020/12/04 04:53:37;;;;;;;40.10;14.60;;;2.40;99.90;;;;;;10328265;28;20057;-64
2020/12/04 04:58:39;;;;;;;36.55;14.60;;;2.50;99.90;;;;;;10301428;28;20064;-64
2020/12/04 05:03:40;;;;;;;37.17;14.13;;;2.50;99.90;;;;;;10326575;28;20057;-64
2020/12/04 05:08:51;;;;;;;49.40;17.50;;;2.50;99.90;;;;;;10321082;28;20061;-64
2020/12/04 05:14:12;;;;;;;44.90;15.43;;;2.50;99.90;;;;;;10324428;28;20054;-64
2020/12/04 05:19:27;;;;;;;44.28;16.52;;;2.50;99.90;;;;;;10324538;28;20061;-64
2020/12/04 05:24:28;;;;;;;39.72;15.35;;;2.60;99.90;;;;;;10333905;28;20050;-64
2020/12/04 05:29:39;;;;;;;52.78;15.85;;;2.70;99.90;;;;;;10333245;28;20058;-65
2020/12/04 05:34:40;;;;;;;30.08;12.43;;;2.90;99.90;;;;;;10331188;28;20081;-64
2020/12/04 05:39:45;;;;;;;33.80;12.95;;;3.00;99.90;;;;;;10333346;28;20064;-64
2020/12/04 05:44:54;;;;;;;25.88;10.65;;;3.20;99.90;;;;;;10335934;28;20049;-64
2020/12/04 05:49:56;;;;;;;21.58;8.57;;;3.30;99.90;;;;;;10331740;28;20708;-64
2020/12/04 05:54:58;;;;;;;24.63;9.48;;;3.40;99.90;;;;;;10333576;28;20042;-64
2020/12/04 06:00:00;;;;;;;20.02;9.25;;;3.40;99.90;;;;;;10332434;28;20085;-64
2020/12/04 06:05:01;;;;;;;28.35;10.70;;;3.50;99.90;;;;;;10330759;28;20046;-64
2020/12/04 06:10:04;;;;;;;23.35;9.88;;;3.60;99.90;;;;;;10328828;28;20054;-63
2020/12/04 06:15:22;;;;;;;23.17;9.63;;;3.60;99.90;;;;;;10329502;28;20056;-63
2020/12/04 06:20:23;;;;;;;22.20;11.07;;;3.60;99.90;;;;;;10278508;28;20050;-63
2020/12/04 06:25:24;;;;;;;26.23;10.32;;;3.70;99.90;;;;;;10330510;28;20054;-63
2020/12/04 06:30:25;;;;;;;23.80;11.27;;;3.70;99.90;;;;;;10330546;28;20050;-63
2020/12/04 06:35:41;;;;;;;21.85;9.80;;;3.80;99.90;;;;;;10330777;28;20065;-63
2020/12/04 06:40:42;;;;;;;27.92;12.68;;;3.70;99.90;;;;;;10333537;28;20046;-63
2020/12/04 06:45:50;;;;;;;24.55;12.43;;;3.80;99.90;;;;;;10333097;28;20049;-63
2020/12/04 06:50:51;;;;;;;26.77;11.27;;;3.90;99.90;;;;;;10332500;28;20175;-63
2020/12/04 06:55:52;;;;;;;22.90;11.70;;;3.90;99.90;;;;;;10328856;28;20064;-63
2020/12/04 07:00:56;;;;;;;34.85;16.63;;;3.90;99.90;;;;;;10328007;28;20172;-63
2020/12/04 07:05:57;;;;;;;17.70;7.60;;;3.90;99.90;;;;;;10331447;28;20054;-62
2020/12/04 07:11:01;;;;;;;18.80;8.23;;;4.00;99.90;;;;;;10330303;28;20113;-62
2020/12/04 07:16:02;;;;;;;15.10;5.85;;;4.10;99.90;;;;;;10332849;28;20057;-63
2020/12/04 07:21:03;;;;;;;13.65;7.63;;;4.20;99.90;;;;;;10327493;28;20141;-63
2020/12/04 07:26:11;;;;;;;11.68;4.43;;;4.30;99.90;;;;;;10332910;28;20068;-63
2020/12/04 07:31:21;;;;;;;10.77;4.30;;;4.40;99.90;;;;;;10328356;28;20139;-62
2020/12/04 07:36:23;;;;;;;7.95;2.58;;;4.50;99.90;;;;;;10331163;28;20058;-62
2020/12/04 07:41:26;;;;;;;8.38;2.70;;;4.50;99.90;;;;;;10326516;28;20081;-62
2020/12/04 07:46:28;;;;;;;7.85;2.83;;;4.60;99.90;;;;;;10329446;28;20115;-62
2020/12/04 07:51:32;;;;;;;7.55;2.97;;;4.60;99.90;;;;;;10324097;28;20994;-62
2020/12/04 07:56:39;;;;;;;5.35;2.35;;;4.70;99.90;;;;;;10328075;28;20054;-62
2020/12/04 08:01:41;;;;;;;5.35;2.65;;;4.70;99.90;;;;;;10324486;28;20100;-62
2020/12/04 08:06:43;;;;;;;8.68;2.63;;;4.70;99.90;;;;;;10328419;28;20061;-62
2020/12/04 08:11:51;;;;;;;9.38;3.55;;;4.80;99.90;;;;;;10327126;28;20057;-62
2020/12/04 08:16:57;;;;;;;7.63;3.70;;;4.80;99.90;;;;;;10331581;28;20567;-62
2020/12/04 08:22:06;;;;;;;9.40;3.63;;;4.80;99.90;;;;;;10323878;28;20065;-62
2020/12/04 08:27:12;;;;;;;7.55;3.85;;;4.80;99.90;;;;;;10327033;28;20049;-62
2020/12/04 08:32:21;;;;;;;8.07;4.10;;;4.80;99.90;;;;;;10328567;28;20049;-62
2020/12/04 08:37:28;;;;;;;10.70;4.70;;;4.80;99.90;;;;;;10312557;28;20053;-61
2020/12/04 08:42:34;;;;;;;9.80;4.30;;;4.80;99.90;;;;;;10329647;28;20108;-62
2020/12/04 08:47:38;;;;;;;12.73;5.93;;;4.80;99.90;;;;;;10323524;28;20041;-61
2020/12/04 08:52:50;;;;;;;7.82;4.25;;;4.90;99.90;;;;;;10327046;28;20061;-62
2020/12/04 08:57:54;;;;;;;12.15;5.38;;;4.80;99.90;;;;;;10277503;28;20054;-62
2020/12/04 09:02:56;;;;;;;9.25;5.57;;;4.90;99.90;;;;;;10326508;28;20107;-62
2020/12/04 09:07:57;;;;;;;12.48;5.85;;;4.90;99.90;;;;;;10328498;28;20052;-62
2020/12/04 09:12:58;;;;;;;13.35;6.07;;;4.90;99.90;;;;;;10327052;28;20057;-61
2020/12/04 09:18:00;;;;;;;9.13;5.25;;;5.00;99.90;;;;;;10326107;28;20046;-62
2020/12/04 09:23:01;;;;;;;11.10;5.93;;;5.10;99.90;;;;;;10325675;28;20054;-62
2020/12/04 09:28:02;;;;;;;12.00;6.03;;;5.20;99.90;;;;;;10322570;28;20061;-62
2020/12/04 09:33:04;;;;;;;11.10;5.80;;;5.30;99.90;;;;;;10320684;28;20049;-62
2020/12/04 09:38:05;;;;;;;14.10;7.13;;;5.50;99.90;;;;;;10315054;28;20038;-62
2020/12/04 09:43:07;;;;;;;12.07;6.57;;;5.70;99.90;;;;;;10320364;28;20112;-61
2020/12/04 09:48:09;;;;;;;9.35;4.88;;;5.70;99.90;;;;;;10322255;28;20120;-62
2020/12/04 09:53:11;;;;;;;10.32;5.22;;;5.90;99.90;;;;;;10320477;28;21013;-61
2020/12/04 09:58:12;;;;;;;8.35;3.97;;;6.00;99.90;;;;;;10319873;28;20062;-64
2020/12/04 10:03:14;;;;;;;8.65;4.60;;;5.90;99.90;;;;;;10322641;28;20050;-63
2020/12/04 10:08:15;;;;;;;8.52;5.65;;;5.90;99.90;;;;;;10327670;28;20132;-64
2020/12/04 10:13:16;;;;;;;11.55;6.45;;;6.00;99.90;;;;;;10328293;28;20143;-63
2020/12/04 10:18:17;;;;;;;11.98;6.05;;;6.10;99.90;;;;;;10329077;28;20420;-63
2020/12/04 10:23:18;;;;;;;9.25;5.63;;;6.20;99.90;;;;;;10325967;28;20131;-63
2020/12/04 10:28:20;;;;;;;11.32;5.45;;;6.30;99.90;;;;;;10325119;28;20192;-61
2020/12/04 10:33:22;;;;;;;11.55;6.03;;;6.20;99.90;;;;;;10326740;28;20080;-62
2020/12/04 10:38:23;;;;;;;12.00;6.57;;;6.20;99.90;;;;;;10325568;28;20053;-62
2020/12/04 10:43:25;;;;;;;10.73;5.90;;;6.20;99.90;;;;;;10325725;28;20053;-61
2020/12/04 10:48:26;;;;;;;10.13;6.53;;;6.20;99.90;;;;;;10322591;28;20108;-62
2020/12/04 10:53:29;;;;;;;14.18;6.53;;;6.40;99.90;;;;;;10328824;28;20046;-61
2020/12/04 10:58:30;;;;;;;9.73;5.47;;;6.40;99.90;;;;;;10323343;28;20057;-61
2020/12/04 11:08:51;;;;;;;10.18;6.72;;;6.70;99.90;;;;;;10232142;28;20046;-62
2020/12/04 11:13:54;;;;;;;11.82;6.15;;;6.70;99.90;;;;;;10323017;28;20280;-62
2020/12/04 11:18:55;;;;;;;10.50;6.40;;;6.70;99.90;;;;;;10321003;28;20065;-61
2020/12/04 11:23:56;;;;;;;9.73;6.97;;;6.70;99.90;;;;;;10327999;28;20053;-62
2020/12/04 11:28:58;;;;;;;11.52;5.80;;;6.60;99.90;;;;;;10307064;28;20053;-62
2020/12/04 11:33:59;;;;;;;12.30;6.65;;;6.50;99.90;;;;;;10326834;28;20053;-62
2020/12/04 11:39:00;;;;;;;15.77;7.50;;;6.50;99.90;;;;;;10327777;28;20100;-61
2020/12/04 11:44:01;;;;;;;12.38;7.70;;;6.50;99.90;;;;;;10326885;28;20080;-61
2020/12/04 11:49:03;;;;;;;13.70;7.55;;;6.40;99.90;;;;;;10333781;28;20060;-62
2020/12/04 11:54:04;;;;;;;13.52;7.10;;;6.40;99.90;;;;;;10326511;28;20113;-62
2020/12/04 11:59:05;;;;;;;15.07;7.38;;;6.30;99.90;;;;;;10325808;28;20104;-62
2020/12/04 12:04:07;;;;;;;17.23;9.80;;;6.30;99.90;;;;;;10325340;28;20065;-62
2020/12/04 12:09:08;;;;;;;16.95;8.52;;;6.40;99.90;;;;;;10325405;28;20053;-61
2020/12/04 12:14:10;;;;;;;13.95;8.57;;;6.40;99.90;;;;;;10328298;28;20057;-61
2020/12/04 12:19:12;;;;;;;17.98;9.43;;;6.40;99.90;;;;;;10328887;28;20049;-61
2020/12/04 12:24:13;;;;;;;13.60;7.07;;;6.40;99.90;;;;;;10327762;28;20045;-61
2020/12/04 12:29:15;;;;;;;12.80;7.18;;;6.40;99.90;;;;;;10326225;28;20052;-61
2020/12/04 12:34:17;;;;;;;13.10;7.85;;;6.50;99.90;;;;;;10325603;28;20654;-61
2020/12/04 12:39:18;;;;;;;15.98;8.57;;;6.60;99.90;;;;;;10324309;28;20062;-61
2020/12/04 12:44:19;;;;;;;17.00;8.40;;;6.50;99.90;;;;;;10326502;28;20062;-61
2020/12/04 12:49:20;;;;;;;19.83;8.70;;;6.50;99.90;;;;;;10329620;28;20172;-62
2020/12/04 12:54:21;;;;;;;19.88;9.20;;;6.50;99.90;;;;;;10327081;28;21181;-62
2020/12/04 12:59:23;;;;;;;17.58;9.48;;;6.40;99.90;;;;;;10326026;28;20061;-62
2020/12/04 13:04:25;;;;;;;23.92;11.38;;;6.30;99.90;;;;;;10323607;28;20049;-61
2020/12/04 13:09:26;;;;;;;16.70;9.93;;;6.30;99.90;;;;;;10323038;28;20143;-62
2020/12/04 13:14:28;;;;;;;17.95;10.50;;;6.20;99.90;;;;;;10324023;28;20768;-61
2020/12/04 13:19:29;;;;;;;19.45;10.10;;;6.20;99.90;;;;;;10325453;28;20056;-62
2020/12/04 13:24:33;;;;;;;19.35;10.35;;;6.20;99.90;;;;;;10321389;28;20075;-61
2020/12/04 13:29:35;;;;;;;19.02;10.77;;;6.10;99.90;;;;;;10325477;28;20054;-62
2020/12/04 13:34:39;;;;;;;22.25;11.52;;;6.10;99.90;;;;;;10321521;28;20053;-62
2020/12/04 13:39:40;;;;;;;20.75;10.20;;;6.10;99.90;;;;;;10326644;28;20065;-62
2020/12/04 13:44:41;;;;;;;22.50;12.95;;;6.00;99.90;;;;;;10331177;28;20082;-62
2020/12/04 13:49:43;;;;;;;23.42;13.23;;;6.00;99.90;;;;;;10332058;28;20476;-61
2020/12/04 13:54:44;;;;;;;23.60;12.35;;;5.80;99.90;;;;;;10328590;28;20910;-61
2020/12/04 13:59:45;;;;;;;23.23;12.32;;;5.90;99.90;;;;;;10330388;28;20495;-61
2020/12/04 14:04:47;;;;;;;28.25;13.60;;;5.80;99.90;;;;;;10327609;28;20074;-62
2020/12/04 14:09:48;;;;;;;27.10;13.63;;;5.70;99.90;;;;;;10328749;28;20052;-62
2020/12/04 14:14:49;;;;;;;28.98;13.88;;;5.30;99.90;;;;;;10330907;28;20060;-61
2020/12/04 14:19:50;;;;;;;22.00;13.10;;;5.30;99.90;;;;;;10332265;28;20054;-62
2020/12/04 14:24:52;;;;;;;27.70;13.77;;;5.10;99.90;;;;;;10330299;28;20065;-62
2020/12/04 14:29:53;;;;;;;26.92;13.82;;;5.10;99.90;;;;;;10328012;28;20072;-61
2020/12/04 14:34:54;;;;;;;30.23;17.05;;;5.10;99.90;;;;;;10330594;28;20053;-62
2020/12/04 14:39:55;;;;;;;26.20;13.90;;;4.90;99.90;;;;;;10328379;28;20046;-62
2020/12/04 14:44:56;;;;;;;28.88;15.63;;;5.10;99.90;;;;;;10327709;28;20058;-62
2020/12/04 14:49:58;;;;;;;30.58;15.90;;;5.30;99.90;;;;;;10327688;28;20108;-62
2020/12/04 14:54:59;;;;;;;29.10;14.50;;;5.20;99.90;;;;;;10329495;28;20045;-62
2020/12/04 15:00:00;;;;;;;30.35;15.52;;;5.10;99.90;;;;;;10330929;28;20044;-62
2020/12/04 15:05:03;;;;;;;30.02;15.57;;;5.00;99.90;;;;;;10329553;28;20132;-62
2020/12/04 15:10:05;;;;;;;33.50;16.33;;;4.90;99.90;;;;;;10328016;28;20077;-62
2020/12/04 15:15:07;;;;;;;30.85;17.00;;;4.80;99.90;;;;;;10331713;28;20053;-62
2020/12/04 15:20:08;;;;;;;33.15;17.27;;;4.70;99.90;;;;;;10337213;28;20051;-62
2020/12/04 15:25:09;;;;;;;32.85;18.10;;;4.60;99.90;;;;;;10331267;28;20578;-62
2020/12/04 15:30:10;;;;;;;34.63;17.55;;;4.60;99.90;;;;;;10332644;28;20057;-63
2020/12/04 15:35:12;;;;;;;32.30;16.80;;;4.50;99.90;;;;;;10335282;28;20050;-63
2020/12/04 15:40:13;;;;;;;36.95;17.85;;;4.50;99.90;;;;;;10334834;28;20100;-66
2020/12/04 15:45:14;;;;;;;35.05;18.23;;;4.40;99.90;;;;;;10334319;28;20057;-63
2020/12/04 15:50:16;;;;;;;36.00;17.05;;;4.30;99.90;;;;;;10338654;28;20053;-62
2020/12/04 15:55:17;;;;;;;44.53;21.63;;;4.30;99.90;;;;;;10331371;28;20050;-63
2020/12/04 16:00:18;;;;;;;40.70;20.27;;;4.20;99.90;;;;;;10332859;28;20108;-63
2020/12/04 16:05:19;;;;;;;33.88;17.73;;;4.20;99.90;;;;;;10329756;28;20066;-63
2020/12/04 16:10:21;;;;;;;38.30;19.48;;;4.10;99.90;;;;;;10326699;28;20053;-63
2020/12/04 16:15:22;;;;;;;38.80;19.00;;;4.10;99.90;;;;;;10325102;28;20057;-63
2020/12/04 16:20:23;;;;;;;37.95;17.17;;;4.00;99.90;;;;;;10327400;28;20045;-63
2020/12/04 16:25:25;;;;;;;37.13;17.42;;;3.80;99.90;;;;;;10328359;28;20064;-63
2020/12/04 16:30:26;;;;;;;40.88;17.13;;;3.80;99.90;;;;;;10330192;28;20602;-63
2020/12/04 16:35:27;;;;;;;40.75;18.80;;;3.70;99.90;;;;;;10329575;28;20045;-63
2020/12/04 16:40:28;;;;;;;38.03;17.58;;;3.60;99.90;;;;;;10326714;28;20076;-63
2020/12/04 16:45:30;;;;;;;34.13;18.02;;;3.50;99.90;;;;;;10327703;28;20054;-66
2020/12/04 16:50:31;;;;;;;35.75;17.33;;;3.50;99.90;;;;;;10328726;28;20050;-66
2020/12/04 16:55:32;;;;;;;32.13;16.63;;;3.60;99.90;;;;;;10328501;28;20058;-66
2020/12/04 17:00:34;;;;;;;34.72;17.10;;;3.60;99.90;;;;;;10327979;28;20085;-66
2020/12/04 17:05:35;;;;;;;34.92;17.17;;;3.60;99.90;;;;;;10327545;28;20049;-66
2020/12/04 17:10:37;;;;;;;38.10;17.20;;;3.60;99.90;;;;;;10325390;28;20050;-66
2020/12/04 17:15:38;;;;;;;35.50;16.40;;;3.60;99.90;;;;;;10330483;28;20054;-66
2020/12/04 17:20:42;;;;;;;37.45;16.90;;;3.60;99.90;;;;;;10335562;28;20061;-66
2020/12/04 17:25:43;;;;;;;37.10;18.77;;;3.70;99.90;;;;;;10335354;28;20515;-67
2020/12/04 17:30:44;;;;;;;35.42;18.02;;;3.70;99.90;;;;;;10334846;28;20050;-66
2020/12/04 17:35:45;;;;;;;37.60;17.25;;;3.80;99.90;;;;;;10335470;28;20062;-66
2020/12/04 17:40:46;;;;;;;37.90;17.90;;;3.70;99.90;;;;;;10337932;28;20065;-66
2020/12/04 17:45:48;;;;;;;32.15;17.20;;;3.70;99.90;;;;;;10338183;28;20136;-66
2020/12/04 17:50:49;;;;;;;36.85;18.83;;;3.60;99.90;;;;;;10334555;28;20046;-66
2020/12/04 17:55:51;;;;;;;35.70;15.95;;;3.60;99.90;;;;;;10335200;28;20069;-67
2020/12/04 18:00:52;;;;;;;37.13;17.33;;;3.50;99.90;;;;;;10334804;28;20057;-67
2020/12/04 18:05:53;;;;;;;31.02;15.82;;;3.50;99.90;;;;;;10336603;28;20072;-67
2020/12/04 18:10:54;;;;;;;29.75;15.30;;;3.50;99.90;;;;;;10333705;28;21013;-67
2020/12/04 18:15:55;;;;;;;28.17;14.38;;;3.50;99.90;;;;;;10334232;28;20064;-66
2020/12/04 18:20:58;;;;;;;32.97;16.75;;;3.40;99.90;;;;;;10333999;28;20057;-67
2020/12/04 18:25:59;;;;;;;34.70;16.88;;;3.30;99.90;;;;;;10333914;28;20412;-66
2020/12/04 18:31:00;;;;;;;42.08;19.67;;;3.30;99.90;;;;;;10333841;28;20049;-67
2020/12/04 18:36:02;;;;;;;35.78;19.08;;;3.40;99.90;;;;;;10331777;28;20092;-68
2020/12/04 18:41:03;;;;;;;36.80;17.95;;;3.30;99.90;;;;;;10331879;28;20046;-67
2020/12/04 18:46:05;;;;;;;30.83;16.98;;;3.20;99.90;;;;;;10333134;28;20049;-67
2020/12/04 18:51:07;;;;;;;40.20;18.90;;;3.20;99.90;;;;;;10332017;28;20046;-66
2020/12/04 18:56:08;;;;;;;34.22;17.88;;;3.20;99.90;;;;;;10332602;28;20046;-67
2020/12/04 19:01:10;;;;;;;39.22;18.88;;;3.10;99.90;;;;;;10332623;28;20042;-66
2020/12/04 19:06:12;;;;;;;34.47;16.30;;;3.10;99.90;;;;;;10331327;28;20135;-67
2020/12/04 19:11:14;;;;;;;32.17;15.15;;;3.10;99.90;;;;;;10327605;28;20053;-67
2020/12/04 19:16:16;;;;;;;30.05;15.27;;;3.10;99.90;;;;;;10327856;28;20064;-66
2020/12/04 19:21:17;;;;;;;38.75;21.33;;;3.10;99.90;;;;;;10330599;28;20759;-67
2020/12/04 19:26:19;;;;;;;32.10;17.23;;;3.10;99.90;;;;;;10330600;28;20252;-67
2020/12/04 19:31:23;;;;;;;35.17;19.48;;;3.10;99.90;;;;;;10328170;28;20516;-66
2020/12/04 19:36:25;;;;;;;55.17;17.00;;;3.10;99.90;;;;;;10327101;28;20041;-67
2020/12/04 19:41:26;;;;;;;28.67;14.63;;;3.10;99.90;;;;;;10329994;28;20448;-66
2020/12/04 19:46:29;;;;;;;29.35;16.83;;;3.10;99.90;;;;;;10337183;28;20103;-66
2020/12/04 19:51:31;;;;;;;28.85;15.77;;;3.20;99.90;;;;;;10328780;28;20061;-67
2020/12/04 19:56:33;;;;;;;31.20;16.08;;;3.20;99.90;;;;;;10329300;28;20054;-67
2020/12/04 20:01:35;;;;;;;35.38;16.40;;;3.20;99.90;;;;;;10328817;28;20054;-67
2020/12/04 20:06:41;;;;;;;33.13;16.73;;;3.20;99.90;;;;;;10327980;28;20041;-67
2020/12/04 20:11:51;;;;;;;27.90;14.98;;;3.30;99.90;;;;;;10330248;28;20057;-67
2020/12/04 20:16:53;;;;;;;32.00;16.95;;;3.30;99.90;;;;;;10328544;28;20798;-67
2020/12/04 20:21:58;;;;;;;32.17;17.35;;;3.30;99.90;;;;;;10328583;28;20108;-67
2020/12/04 20:27:01;;;;;;;40.38;21.02;;;3.30;99.90;;;;;;10330028;28;20477;-67
2020/12/04 20:32:03;;;;;;;43.20;23.30;;;3.40;99.90;;;;;;10310448;28;20513;-67
2020/12/04 20:37:05;;;;;;;40.55;19.98;;;3.40;99.90;;;;;;10329054;28;20503;-67
2020/12/04 20:42:07;;;;;;;34.45;18.65;;;3.40;99.90;;;;;;10328912;28;20056;-70
2020/12/04 20:47:08;;;;;;;44.55;23.08;;;3.40;99.90;;;;;;10329029;28;20046;-68
2020/12/04 20:52:10;;;;;;;35.05;17.75;;;3.40;99.90;;;;;;10327738;28;20485;-68
2020/12/04 20:57:12;;;;;;;36.42;17.55;;;3.30;99.90;;;;;;10311152;28;20050;-68
2020/12/04 21:02:13;;;;;;;35.22;18.20;;;3.40;99.90;;;;;;10325025;28;20385;-68
2020/12/04 21:07:14;;;;;;;36.38;18.23;;;3.40;99.90;;;;;;10328310;28;20781;-68
2020/12/04 21:12:16;;;;;;;33.55;16.95;;;3.30;99.90;;;;;;10328057;28;20068;-68
2020/12/04 21:17:20;;;;;;;32.33;15.07;;;3.30;99.90;;;;;;10328076;28;20046;-68
2020/12/04 21:22:22;;;;;;;31.48;15.73;;;3.30;99.90;;;;;;10327694;28;20060;-68
2020/12/04 21:27:23;;;;;;;32.63;17.05;;;3.30;99.90;;;;;;10324824;28;20672;-67
2020/12/04 21:32:24;;;;;;;35.28;17.73;;;3.30;99.90;;;;;;10328998;28;20061;-67
2020/12/04 21:37:26;;;;;;;32.05;17.33;;;3.40;99.90;;;;;;10327374;28;20608;-63
2020/12/04 21:42:27;;;;;;;36.10;18.27;;;3.40;99.90;;;;;;10264388;28;20747;-63
2020/12/04 21:47:28;;;;;;;37.17;20.08;;;3.40;99.90;;;;;;10314009;28;20104;-64
2020/12/04 21:52:30;;;;;;;33.65;16.17;;;3.40;99.90;;;;;;10324104;28;20057;-63
2020/12/04 21:57:31;;;;;;;29.13;15.82;;;3.40;99.90;;;;;;10326329;28;20137;-64
2020/12/04 22:02:33;;;;;;;28.42;15.40;;;3.40;99.90;;;;;;10313749;28;20417;-63
2020/12/04 22:07:34;;;;;;;32.40;15.43;;;3.40;99.90;;;;;;10336588;28;20840;-64
2020/12/04 22:12:36;;;;;;;32.90;17.42;;;3.40;99.90;;;;;;10316627;28;20417;-64
2020/12/04 22:17:37;;;;;;;38.08;17.63;;;3.40;99.90;;;;;;10330809;28;20500;-64
2020/12/04 22:22:38;;;;;;;38.67;16.98;;;3.30;99.90;;;;;;10333310;28;20545;-64
2020/12/04 22:27:39;;;;;;;29.90;15.60;;;3.30;99.90;;;;;;10335406;28;20053;-64
2020/12/04 22:32:42;;;;;;;34.53;16.35;;;3.30;99.90;;;;;;10333626;28;20616;-64
2020/12/04 22:37:45;;;;;;;31.98;15.80;;;3.20;99.90;;;;;;10335017;28;20054;-64
2020/12/04 22:42:46;;;;;;;30.55;14.98;;;3.20;99.90;;;;;;10334011;28;20050;-64
2020/12/04 22:47:49;;;;;;;29.65;15.23;;;3.20;99.90;;;;;;10334094;28;20049;-64
2020/12/04 22:52:50;;;;;;;25.88;14.13;;;3.20;99.90;;;;;;10315106;28;20046;-64
2020/12/04 22:57:51;;;;;;;27.48;13.95;;;3.20;99.90;;;;;;10332585;28;20065;-64
2020/12/04 23:02:53;;;;;;;31.30;15.73;;;3.20;99.90;;;;;;10331650;28;20882;-64
2020/12/04 23:07:54;;;;;;;28.40;15.57;;;3.20;99.90;;;;;;10333444;28;20072;-64
2020/12/04 23:12:55;;;;;;;30.92;15.23;;;3.20;99.90;;;;;;10329880;28;20426;-64
2020/12/04 23:17:57;;;;;;;29.30;17.50;;;3.30;99.90;;;;;;10296019;28;20499;-64
2020/12/04 23:23:02;;;;;;;29.88;16.70;;;3.30;99.90;;;;;;10302451;28;20042;-64
2020/12/04 23:28:03;;;;;;;31.15;16.75;;;3.30;99.90;;;;;;10328266;28;20064;-63
2020/12/04 23:33:04;;;;;;;35.67;16.88;;;3.30;99.90;;;;;;10329437;28;20488;-63
2020/12/04 23:38:06;;;;;;;30.15;16.75;;;3.30;99.90;;;;;;10332255;28;20057;-64
2020/12/04 23:43:07;;;;;;;29.95;15.85;;;3.30;99.90;;;;;;10331134;28;20044;-64
2020/12/04 23:48:08;;;;;;;32.28;16.73;;;3.40;99.90;;;;;;10330679;28;20041;-64
2020/12/04 23:53:09;;;;;;;33.35;16.52;;;3.40;99.90;;;;;;10329603;28;20068;-64
2020/12/04 23:58:11;;;;;;;32.25;17.35;;;3.30;99.90;;;;;;10331501;28;20064;-64
